sensor_id;sensor_type;location;lat;lon;timestamp;pressure;altitude;pressure_sealevel;temperature;humidity
64078;BME280;51039;49.696;10.808;2022-12-26T00:01:48;98253.72;;;5.15;100.00
64078;BME280;51039;49.696;10.808;2022-12-26T00:04:15;98253.91;;;5.13;100.00
64078;BME280;51039;49.696;10.808;2022-12-26T00:06:41;98245.53;;;5.09;100.00
64078;BME280;51039;49.696;10.808;2022-12-26T00:09:06;98257.47;;;5.20;100.00
64078;BME280;51039;49.696;10.808;2022-12-26T00:11:32;98248.75;;;5.28;100.00
64078;BME280;51039;49.696;10.808;2022-12-26T00:13:59;98259.53;;;5.33;100.00
64078;BME280;51039;49.696;10.808;2022-12-26T00:16:29;98260.66;;;5.39;100.00
64078;BME280;51039;49.696;10.808;2022-12-26T00:18:55;98259.53;;;5.41;100.00
64078;BME280;51039;49.696;10.808;2022-12-26T00:21:20;98257.53;;;5.43;100.00
64078;BME280;51039;49.696;10.808;2022-12-26T00:23:47;98260.84;;;5.37;100.00
64078;BME280;51039;49.696;10.808;2022-12-26T00:26:17;98261.72;;;5.29;100.00
64078;BME280;51039;49.696;10.808;2022-12-26T00:28:45;98265.53;;;5.19;100.00
64078;BME280;51039;49.696;10.808;2022-12-26T00:31:12;98259.94;;;5.22;100.00
64078;BME280;51039;49.696;10.808;2022-12-26T00:33:40;98252.72;;;5.24;100.00
64078;BME280;51039;49.696;10.808;2022-12-26T00:36:07;98249.56;;;5.28;100.00
64078;BME280;51039;49.696;10.808;2022-12-26T00:38:34;98250.03;;;5.32;100.00
64078;BME280;51039;49.696;10.808;2022-12-26T00:41:01;98249.22;;;5.31;100.00
64078;BME280;51039;49.696;10.808;2022-12-26T00:43:27;98243.63;;;5.35;100.00
64078;BME280;51039;49.696;10.808;2022-12-26T00:45:52;98253.31;;;5.34;100.00
64078;BME280;51039;49.696;10.808;2022-12-26T00:48:17;98243.63;;;5.35;100.00
64078;BME280;51039;49.696;10.808;2022-12-26T00:50:43;98234.28;;;5.32;100.00
64078;BME280;51039;49.696;10.808;2022-12-26T00:53:08;98236.09;;;5.31;100.00
64078;BME280;51039;49.696;10.808;2022-12-26T00:55:33;98232.31;;;5.34;100.00
64078;BME280;51039;49.696;10.808;2022-12-26T00:57:59;98231.66;;;5.32;100.00
64078;BME280;51039;49.696;10.808;2022-12-26T01:00:24;98227.38;;;5.31;100.00
64078;BME280;51039;49.696;10.808;2022-12-26T01:02:49;98235.72;;;5.35;100.00
64078;BME280;51039;49.696;10.808;2022-12-26T01:05:15;98233.97;;;5.27;100.00
64078;BME280;51039;49.696;10.808;2022-12-26T01:07:40;98240.06;;;5.19;100.00
64078;BME280;51039;49.696;10.808;2022-12-26T01:10:06;98243.56;;;5.11;100.00
64078;BME280;51039;49.696;10.808;2022-12-26T01:12:33;98246.06;;;5.05;100.00
64078;BME280;51039;49.696;10.808;2022-12-26T01:14:58;98246.41;;;4.94;100.00
64078;BME280;51039;49.696;10.808;2022-12-26T01:17:25;98253.81;;;4.90;100.00
64078;BME280;51039;49.696;10.808;2022-12-26T01:19:52;98256.13;;;4.85;100.00
64078;BME280;51039;49.696;10.808;2022-12-26T01:22:17;98264.00;;;4.85;100.00
64078;BME280;51039;49.696;10.808;2022-12-26T01:24:43;98265.34;;;4.72;100.00
64078;BME280;51039;49.696;10.808;2022-12-26T01:27:08;98260.25;;;4.71;100.00
64078;BME280;51039;49.696;10.808;2022-12-26T01:29:34;98250.91;;;4.77;100.00
64078;BME280;51039;49.696;10.808;2022-12-26T01:31:59;98248.28;;;4.77;100.00
64078;BME280;51039;49.696;10.808;2022-12-26T01:34:24;98245.31;;;4.80;100.00
64078;BME280;51039;49.696;10.808;2022-12-26T01:36:53;98237.75;;;4.85;100.00
64078;BME280;51039;49.696;10.808;2022-12-26T01:39:19;98240.22;;;4.86;100.00
64078;BME280;51039;49.696;10.808;2022-12-26T01:41:45;98242.53;;;4.81;100.00
64078;BME280;51039;49.696;10.808;2022-12-26T01:47:13;98261.59;;;4.67;100.00
64078;BME280;51039;49.696;10.808;2022-12-26T01:49:43;98254.53;;;4.59;100.00
64078;BME280;51039;49.696;10.808;2022-12-26T01:52:15;98262.41;;;4.59;100.00
64078;BME280;51039;49.696;10.808;2022-12-26T01:54:47;98248.97;;;4.54;100.00
64078;BME280;51039;49.696;10.808;2022-12-26T01:57:29;98253.91;;;4.57;100.00
64078;BME280;51039;49.696;10.808;2022-12-26T02:00:01;98253.09;;;4.57;100.00
64078;BME280;51039;49.696;10.808;2022-12-26T02:02:27;98243.91;;;4.52;100.00
64078;BME280;51039;49.696;10.808;2022-12-26T02:04:54;98229.31;;;4.58;100.00
64078;BME280;51039;49.696;10.808;2022-12-26T02:07:41;98238.66;;;4.61;100.00
64078;BME280;51039;49.696;10.808;2022-12-26T02:10:13;98238.81;;;4.59;100.00
64078;BME280;51039;49.696;10.808;2022-12-26T02:12:44;98229.47;;;4.57;100.00
64078;BME280;51039;49.696;10.808;2022-12-26T02:15:12;98224.06;;;4.58;100.00
64078;BME280;51039;49.696;10.808;2022-12-26T02:17:40;98233.22;;;4.62;100.00
64078;BME280;51039;49.696;10.808;2022-12-26T02:23:18;98223.03;;;4.67;100.00
64078;BME280;51039;49.696;10.808;2022-12-26T02:29:05;98222.03;;;4.77;100.00
64078;BME280;51039;49.696;10.808;2022-12-26T02:34:37;98220.06;;;4.79;100.00
64078;BME280;51039;49.696;10.808;2022-12-26T02:43:26;98228.59;;;4.72;100.00
64078;BME280;51039;49.696;10.808;2022-12-26T02:46:18;98216.13;;;4.75;100.00
64078;BME280;51039;49.696;10.808;2022-12-26T02:49:15;98222.84;;;4.77;100.00
64078;BME280;51039;49.696;10.808;2022-12-26T02:51:56;98209.22;;;4.82;100.00
64078;BME280;51039;49.696;10.808;2022-12-26T02:55:08;98231.03;;;4.82;100.00
64078;BME280;51039;49.696;10.808;2022-12-26T03:01:02;98226.59;;;4.83;100.00
64078;BME280;51039;49.696;10.808;2022-12-26T03:03:50;98222.19;;;4.83;100.00
64078;BME280;51039;49.696;10.808;2022-12-26T03:06:37;98229.38;;;4.89;100.00
64078;BME280;51039;49.696;10.808;2022-12-26T03:09:28;98240.22;;;4.86;100.00
64078;BME280;51039;49.696;10.808;2022-12-26T03:15:03;98238.88;;;4.99;100.00
64078;BME280;51039;49.696;10.808;2022-12-26T03:17:40;98237.06;;;4.99;100.00
64078;BME280;51039;49.696;10.808;2022-12-26T03:20:13;98235.88;;;5.02;100.00
64078;BME280;51039;49.696;10.808;2022-12-26T03:25:17;98245.53;;;5.09;100.00
64078;BME280;51039;49.696;10.808;2022-12-26T03:28:07;98238.94;;;5.14;100.00
64078;BME280;51039;49.696;10.808;2022-12-26T03:30:32;98242.41;;;5.14;100.00
64078;BME280;51039;49.696;10.808;2022-12-26T03:33:14;98239.91;;;5.21;100.00
64078;BME280;51039;49.696;10.808;2022-12-26T03:35:59;98249.72;;;5.27;100.00
64078;BME280;51039;49.696;10.808;2022-12-26T03:41:26;98234.06;;;5.42;100.00
64078;BME280;51039;49.696;10.808;2022-12-26T03:44:31;98251.91;;;5.46;100.00
64078;BME280;51039;49.696;10.808;2022-12-26T03:47:35;98248.00;;;5.50;100.00
64078;BME280;51039;49.696;10.808;2022-12-26T03:50:30;98241.41;;;5.46;100.00
64078;BME280;51039;49.696;10.808;2022-12-26T03:53:22;98245.53;;;5.49;100.00
64078;BME280;51039;49.696;10.808;2022-12-26T03:56:23;98251.69;;;5.56;100.00
64078;BME280;51039;49.696;10.808;2022-12-26T03:59:13;98258.28;;;5.60;100.00
64078;BME280;51039;49.696;10.808;2022-12-26T04:02:06;98248.03;;;5.65;100.00
64078;BME280;51039;49.696;10.808;2022-12-26T04:04:55;98257.50;;;5.75;100.00
64078;BME280;51039;49.696;10.808;2022-12-26T04:07:49;98258.94;;;5.85;100.00
64078;BME280;51039;49.696;10.808;2022-12-26T04:10:41;98253.63;;;5.94;100.00
64078;BME280;51039;49.696;10.808;2022-12-26T04:13:37;98242.63;;;6.13;100.00
64078;BME280;51039;49.696;10.808;2022-12-26T04:16:43;98237.25;;;6.29;100.00
64078;BME280;51039;49.696;10.808;2022-12-26T04:22:23;98258.25;;;6.53;100.00
64078;BME280;51039;49.696;10.808;2022-12-26T04:25:18;98254.09;;;6.58;100.00
64078;BME280;51039;49.696;10.808;2022-12-26T04:28:07;98249.72;;;6.51;100.00
64078;BME280;51039;49.696;10.808;2022-12-26T04:30:52;98250.06;;;6.47;100.00
64078;BME280;51039;49.696;10.808;2022-12-26T04:33:43;98256.06;;;6.41;100.00
64078;BME280;51039;49.696;10.808;2022-12-26T04:36:49;98254.56;;;6.39;100.00
64078;BME280;51039;49.696;10.808;2022-12-26T04:39:42;98257.72;;;6.19;100.00
64078;BME280;51039;49.696;10.808;2022-12-26T04:42:31;98243.56;;;6.20;100.00
64078;BME280;51039;49.696;10.808;2022-12-26T04:45:16;98248.72;;;6.14;100.00
64078;BME280;51039;49.696;10.808;2022-12-26T04:47:44;98243.53;;;6.05;100.00
64078;BME280;51039;49.696;10.808;2022-12-26T04:50:29;98247.44;;;6.09;100.00
64078;BME280;51039;49.696;10.808;2022-12-26T04:52:54;98237.56;;;6.12;100.00
64078;BME280;51039;49.696;10.808;2022-12-26T04:55:22;98231.94;;;6.15;100.00
64078;BME280;51039;49.696;10.808;2022-12-26T04:57:55;98225.50;;;6.17;100.00
64078;BME280;51039;49.696;10.808;2022-12-26T05:00:21;98215.84;;;6.33;100.00
64078;BME280;51039;49.696;10.808;2022-12-26T05:02:49;98217.41;;;6.57;100.00
64078;BME280;51039;49.696;10.808;2022-12-26T05:05:35;98210.72;;;6.84;100.00
64078;BME280;51039;49.696;10.808;2022-12-26T05:08:29;98196.97;;;7.03;100.00
64078;BME280;51039;49.696;10.808;2022-12-26T05:11:17;98200.47;;;7.25;100.00
64078;BME280;51039;49.696;10.808;2022-12-26T05:13:43;98203.00;;;7.34;99.70
64078;BME280;51039;49.696;10.808;2022-12-26T05:16:08;98212.34;;;7.36;99.44
64078;BME280;51039;49.696;10.808;2022-12-26T05:18:52;98215.25;;;7.41;98.90
64078;BME280;51039;49.696;10.808;2022-12-26T05:21:36;98215.13;;;7.50;98.24
64078;BME280;51039;49.696;10.808;2022-12-26T05:24:20;98224.25;;;7.47;98.38
64078;BME280;51039;49.696;10.808;2022-12-26T05:27:08;98220.34;;;7.43;98.53
64078;BME280;51039;49.696;10.808;2022-12-26T05:29:57;98233.28;;;7.23;99.09
64078;BME280;51039;49.696;10.808;2022-12-26T05:32:22;98240.84;;;7.11;99.55
64078;BME280;51039;49.696;10.808;2022-12-26T05:35:06;98241.66;;;6.97;99.88
64078;BME280;51039;49.696;10.808;2022-12-26T05:37:31;98233.66;;;6.90;99.95
64078;BME280;51039;49.696;10.808;2022-12-26T05:39:57;98237.03;;;6.84;99.88
64078;BME280;51039;49.696;10.808;2022-12-26T05:42:22;98235.94;;;6.78;100.00
64078;BME280;51039;49.696;10.808;2022-12-26T05:44:47;98237.03;;;6.69;100.00
64078;BME280;51039;49.696;10.808;2022-12-26T05:47:13;98230.84;;;6.62;100.00
64078;BME280;51039;49.696;10.808;2022-12-26T05:49:38;98238.56;;;6.63;100.00
64078;BME280;51039;49.696;10.808;2022-12-26T05:52:03;98222.13;;;6.61;100.00
64078;BME280;51039;49.696;10.808;2022-12-26T05:54:29;98237.75;;;6.63;100.00
64078;BME280;51039;49.696;10.808;2022-12-26T05:56:54;98250.75;;;6.64;100.00
64078;BME280;51039;49.696;10.808;2022-12-26T05:59:19;98249.38;;;6.68;100.00
64078;BME280;51039;49.696;10.808;2022-12-26T06:01:44;98248.81;;;6.73;100.00
64078;BME280;51039;49.696;10.808;2022-12-26T06:04:10;98242.56;;;6.74;100.00
64078;BME280;51039;49.696;10.808;2022-12-26T06:06:35;98249.19;;;6.70;100.00
64078;BME280;51039;49.696;10.808;2022-12-26T06:09:00;98242.28;;;6.69;100.00
64078;BME280;51039;49.696;10.808;2022-12-26T06:11:26;98237.19;;;6.67;100.00
64078;BME280;51039;49.696;10.808;2022-12-26T06:13:51;98245.47;;;6.64;100.00
64078;BME280;51039;49.696;10.808;2022-12-26T06:16:17;98243.47;;;6.66;100.00
64078;BME280;51039;49.696;10.808;2022-12-26T06:18:43;98240.38;;;6.63;100.00
64078;BME280;51039;49.696;10.808;2022-12-26T06:21:10;98240.56;;;6.61;100.00
64078;BME280;51039;49.696;10.808;2022-12-26T06:23:37;98234.78;;;6.66;100.00
64078;BME280;51039;49.696;10.808;2022-12-26T06:26:03;98235.75;;;6.65;100.00
64078;BME280;51039;49.696;10.808;2022-12-26T06:28:29;98233.69;;;6.60;100.00
64078;BME280;51039;49.696;10.808;2022-12-26T06:31:00;98238.03;;;6.68;100.00
64078;BME280;51039;49.696;10.808;2022-12-26T06:33:29;98234.56;;;6.67;100.00
64078;BME280;51039;49.696;10.808;2022-12-26T06:36:00;98237.47;;;6.73;100.00
64078;BME280;51039;49.696;10.808;2022-12-26T06:38:26;98234.22;;;6.71;100.00
64078;BME280;51039;49.696;10.808;2022-12-26T06:40:51;98236.50;;;6.74;100.00
64078;BME280;51039;49.696;10.808;2022-12-26T06:43:17;98232.56;;;6.69;100.00
64078;BME280;51039;49.696;10.808;2022-12-26T06:45:42;98227.13;;;6.71;100.00
64078;BME280;51039;49.696;10.808;2022-12-26T06:48:07;98228.94;;;6.71;100.00
64078;BME280;51039;49.696;10.808;2022-12-26T06:50:34;98234.22;;;6.71;100.00
64078;BME280;51039;49.696;10.808;2022-12-26T06:53:00;98234.03;;;6.72;100.00
64078;BME280;51039;49.696;10.808;2022-12-26T06:55:25;98234.50;;;6.76;100.00
64078;BME280;51039;49.696;10.808;2022-12-26T06:57:51;98235.84;;;6.86;100.00
64078;BME280;51039;49.696;10.808;2022-12-26T07:00:17;98242.31;;;6.84;100.00
64078;BME280;51039;49.696;10.808;2022-12-26T07:02:42;98243.66;;;6.80;100.00
64078;BME280;51039;49.696;10.808;2022-12-26T07:05:08;98246.75;;;6.83;100.00
64078;BME280;51039;49.696;10.808;2022-12-26T07:07:33;98245.09;;;6.82;100.00
64078;BME280;51039;49.696;10.808;2022-12-26T07:09:58;98250.84;;;6.86;100.00
64078;BME280;51039;49.696;10.808;2022-12-26T07:12:24;98249.19;;;6.85;100.00
64078;BME280;51039;49.696;10.808;2022-12-26T07:14:49;98253.94;;;6.90;100.00
64078;BME280;51039;49.696;10.808;2022-12-26T07:17:14;98255.53;;;6.91;100.00
64078;BME280;51039;49.696;10.808;2022-12-26T07:19:40;98258.63;;;6.94;100.00
64078;BME280;51039;49.696;10.808;2022-12-26T07:22:05;98264.81;;;7.01;100.00
64078;BME280;51039;49.696;10.808;2022-12-26T07:24:30;98260.81;;;7.05;100.00
64078;BME280;51039;49.696;10.808;2022-12-26T07:26:56;98275.97;;;7.03;100.00
64078;BME280;51039;49.696;10.808;2022-12-26T07:29:21;98280.50;;;7.10;100.00
64078;BME280;51039;49.696;10.808;2022-12-26T07:31:46;98283.97;;;7.10;100.00
64078;BME280;51039;49.696;10.808;2022-12-26T07:34:12;98280.16;;;7.13;100.00
64078;BME280;51039;49.696;10.808;2022-12-26T07:36:38;98284.16;;;7.08;100.00
64078;BME280;51039;49.696;10.808;2022-12-26T07:39:04;98279.78;;;7.16;100.00
64078;BME280;51039;49.696;10.808;2022-12-26T07:41:29;98280.69;;;7.23;100.00
64078;BME280;51039;49.696;10.808;2022-12-26T07:44:13;98281.78;;;7.28;100.00
64078;BME280;51039;49.696;10.808;2022-12-26T07:46:38;98276.84;;;7.40;100.00
64078;BME280;51039;49.696;10.808;2022-12-26T07:49:04;98270.75;;;7.55;100.00
64078;BME280;51039;49.696;10.808;2022-12-26T07:51:29;98277.97;;;7.67;100.00
64078;BME280;51039;49.696;10.808;2022-12-26T07:53:54;98286.16;;;7.73;100.00
64078;BME280;51039;49.696;10.808;2022-12-26T07:56:20;98278.06;;;7.74;100.00
64078;BME280;51039;49.696;10.808;2022-12-26T07:58:48;98279.78;;;7.82;100.00
64078;BME280;51039;49.696;10.808;2022-12-26T08:01:14;98283.84;;;7.84;99.88
64078;BME280;51039;49.696;10.808;2022-12-26T08:03:40;98291.63;;;7.93;99.80
64078;BME280;51039;49.696;10.808;2022-12-26T08:06:06;98281.66;;;8.10;99.15
64078;BME280;51039;49.696;10.808;2022-12-26T08:08:34;98289.00;;;8.36;98.08
64078;BME280;51039;49.696;10.808;2022-12-26T08:11:00;98279.84;;;8.53;97.30
64078;BME280;51039;49.696;10.808;2022-12-26T08:13:28;98285.84;;;8.69;96.07
64078;BME280;51039;49.696;10.808;2022-12-26T08:15:54;98292.19;;;8.74;95.85
64078;BME280;51039;49.696;10.808;2022-12-26T08:18:20;98285.75;;;8.83;95.44
64078;BME280;51039;49.696;10.808;2022-12-26T08:20:45;98278.47;;;8.92;95.25
64078;BME280;51039;49.696;10.808;2022-12-26T08:23:10;98285.84;;;9.03;95.30
64078;BME280;51039;49.696;10.808;2022-12-26T08:25:36;98296.22;;;9.05;95.98
64078;BME280;51039;49.696;10.808;2022-12-26T08:28:01;98307.59;;;9.06;95.73
64078;BME280;51039;49.696;10.808;2022-12-26T08:30:26;98312.09;;;9.05;96.14
64078;BME280;51039;49.696;10.808;2022-12-26T08:32:52;98322.06;;;9.10;96.47
64078;BME280;51039;49.696;10.808;2022-12-26T08:35:17;98317.03;;;9.15;96.77
64078;BME280;51039;49.696;10.808;2022-12-26T08:37:42;98324.53;;;9.18;97.04
64078;BME280;51039;49.696;10.808;2022-12-26T08:40:08;98323.16;;;9.22;97.92
64078;BME280;51039;49.696;10.808;2022-12-26T08:42:34;98326.25;;;9.32;97.97
64078;BME280;51039;49.696;10.808;2022-12-26T08:44:59;98326.06;;;9.34;97.91
64078;BME280;51039;49.696;10.808;2022-12-26T08:47:24;98319.19;;;9.39;98.14
64078;BME280;51039;49.696;10.808;2022-12-26T08:49:51;98320.03;;;9.47;98.16
64078;BME280;51039;49.696;10.808;2022-12-26T08:52:16;98311.09;;;9.48;98.55
64078;BME280;51039;49.696;10.808;2022-12-26T08:54:42;98320.91;;;9.60;98.48
64078;BME280;51039;49.696;10.808;2022-12-26T08:57:07;98315.63;;;9.67;98.04
64078;BME280;51039;49.696;10.808;2022-12-26T08:59:33;98314.66;;;9.75;97.96
64078;BME280;51039;49.696;10.808;2022-12-26T09:01:58;98306.56;;;9.90;97.73
64078;BME280;51039;49.696;10.808;2022-12-26T09:04:24;98314.53;;;10.03;97.38
64078;BME280;51039;49.696;10.808;2022-12-26T09:06:49;98311.28;;;10.08;96.63
64078;BME280;51039;49.696;10.808;2022-12-26T09:09:14;98327.78;;;10.03;96.55
64078;BME280;51039;49.696;10.808;2022-12-26T09:11:40;98328.91;;;9.87;97.17
64078;BME280;51039;49.696;10.808;2022-12-26T09:14:06;98324.28;;;9.89;97.74
64078;BME280;51039;49.696;10.808;2022-12-26T09:16:37;98326.69;;;9.91;97.73
64078;BME280;51039;49.696;10.808;2022-12-26T09:19:06;98323.44;;;9.89;98.30
64078;BME280;51039;49.696;10.808;2022-12-26T09:21:33;98332.38;;;9.81;99.11
64078;BME280;51039;49.696;10.808;2022-12-26T09:24:00;98334.38;;;9.72;99.41
64078;BME280;51039;49.696;10.808;2022-12-26T09:26:27;98327.03;;;9.68;99.91
64078;BME280;51039;49.696;10.808;2022-12-26T09:28:53;98328.47;;;9.70;100.00
64078;BME280;51039;49.696;10.808;2022-12-26T09:31:20;98335.19;;;9.73;100.00
64078;BME280;51039;49.696;10.808;2022-12-26T09:33:47;98337.00;;;9.66;100.00
64078;BME280;51039;49.696;10.808;2022-12-26T09:36:15;98350.41;;;9.64;100.00
64078;BME280;51039;49.696;10.808;2022-12-26T09:38:42;98349.59;;;9.63;100.00
64078;BME280;51039;49.696;10.808;2022-12-26T09:46:43;98366.25;;;9.57;100.00
64078;BME280;51039;49.696;10.808;2022-12-26T09:49:33;98367.91;;;9.65;100.00
64078;BME280;51039;49.696;10.808;2022-12-26T09:52:09;98367.06;;;9.58;100.00
64078;BME280;51039;49.696;10.808;2022-12-26T09:54:43;98357.09;;;9.60;100.00
64078;BME280;51039;49.696;10.808;2022-12-26T09:57:24;98366.50;;;9.62;100.00
64078;BME280;51039;49.696;10.808;2022-12-26T09:59:57;98377.28;;;9.68;100.00
64078;BME280;51039;49.696;10.808;2022-12-26T10:02:25;98371.78;;;9.62;100.00
64078;BME280;51039;49.696;10.808;2022-12-26T10:04:51;98369.72;;;9.58;100.00
64078;BME280;51039;49.696;10.808;2022-12-26T10:07:20;98364.41;;;9.58;100.00
64078;BME280;51039;49.696;10.808;2022-12-26T10:09:50;98370.31;;;9.60;100.00
64078;BME280;51039;49.696;10.808;2022-12-26T10:12:27;98377.03;;;9.56;100.00
64078;BME280;51039;49.696;10.808;2022-12-26T10:15:05;98384.09;;;9.49;100.00
64078;BME280;51039;49.696;10.808;2022-12-26T10:17:58;98380.03;;;9.46;100.00
64078;BME280;51039;49.696;10.808;2022-12-26T10:23:53;98381.44;;;9.49;100.00
64078;BME280;51039;49.696;10.808;2022-12-26T10:26:33;98390.41;;;9.48;100.00
64078;BME280;51039;49.696;10.808;2022-12-26T10:31:51;98386.16;;;9.53;100.00
64078;BME280;51039;49.696;10.808;2022-12-26T10:34:33;98384.53;;;9.52;100.00
64078;BME280;51039;49.696;10.808;2022-12-26T10:39:56;98389.25;;;9.57;100.00
64078;BME280;51039;49.696;10.808;2022-12-26T10:42:30;98391.06;;;9.56;100.00
64078;BME280;51039;49.696;10.808;2022-12-26T10:45:00;98389.25;;;9.57;100.00
64078;BME280;51039;49.696;10.808;2022-12-26T10:47:32;98392.25;;;9.54;100.00
64078;BME280;51039;49.696;10.808;2022-12-26T10:50:00;98397.97;;;9.51;100.00
64078;BME280;51039;49.696;10.808;2022-12-26T10:52:28;98394.88;;;9.47;100.00
64078;BME280;51039;49.696;10.808;2022-12-26T10:54:57;98382.91;;;9.51;100.00
64078;BME280;51039;49.696;10.808;2022-12-26T10:57:25;98370.88;;;9.49;100.00
64078;BME280;51039;49.696;10.808;2022-12-26T10:59:52;98383.91;;;9.50;100.00
64078;BME280;51039;49.696;10.808;2022-12-26T11:02:36;98394.28;;;9.52;100.00
64078;BME280;51039;49.696;10.808;2022-12-26T11:05:08;98406.72;;;9.58;100.00
64078;BME280;51039;49.696;10.808;2022-12-26T11:07:37;98398.00;;;9.64;100.00
64078;BME280;51039;49.696;10.808;2022-12-26T11:10:12;98397.44;;;9.69;100.00
64078;BME280;51039;49.696;10.808;2022-12-26T11:12:44;98403.53;;;9.69;100.00
64078;BME280;51039;49.696;10.808;2022-12-26T11:15:20;98401.13;;;9.74;100.00
64078;BME280;51039;49.696;10.808;2022-12-26T11:18:19;98394.97;;;9.67;100.00
64078;BME280;51039;49.696;10.808;2022-12-26T11:21:10;98391.09;;;9.63;100.00
64078;BME280;51039;49.696;10.808;2022-12-26T11:23:38;98401.50;;;9.65;100.00
64078;BME280;51039;49.696;10.808;2022-12-26T11:26:09;98401.06;;;9.61;100.00
64078;BME280;51039;49.696;10.808;2022-12-26T11:28:43;98401.63;;;9.56;100.00
64078;BME280;51039;49.696;10.808;2022-12-26T11:31:13;98396.94;;;9.52;100.00
64078;BME280;51039;49.696;10.808;2022-12-26T11:33:48;98383.06;;;9.43;100.00
64078;BME280;51039;49.696;10.808;2022-12-26T11:38:47;98392.81;;;9.42;100.00
64078;BME280;51039;49.696;10.808;2022-12-26T11:43:56;98372.06;;;9.39;100.00
64078;BME280;51039;49.696;10.808;2022-12-26T11:47:00;98386.69;;;9.35;100.00
64078;BME280;51039;49.696;10.808;2022-12-26T11:49:24;98369.78;;;9.36;100.00
64078;BME280;51039;49.696;10.808;2022-12-26T11:51:50;98360.63;;;9.32;100.00
64078;BME280;51039;49.696;10.808;2022-12-26T11:54:21;98373.41;;;9.29;100.00
64078;BME280;51039;49.696;10.808;2022-12-26T11:57:08;98383.78;;;9.30;100.00
64078;BME280;51039;49.696;10.808;2022-12-26T11:59:37;98369.19;;;9.34;100.00
64078;BME280;51039;49.696;10.808;2022-12-26T12:04:48;98355.47;;;9.59;100.00
64078;BME280;51039;49.696;10.808;2022-12-26T12:07:23;98354.31;;;9.68;100.00
64078;BME280;51039;49.696;10.808;2022-12-26T12:18:50;98369.78;;;9.71;100.00
64078;BME280;51039;49.696;10.808;2022-12-26T12:21:30;98367.34;;;9.76;100.00
64078;BME280;51039;49.696;10.808;2022-12-26T12:26:34;98370.19;;;9.75;100.00
64078;BME280;51039;49.696;10.808;2022-12-26T12:29:47;98365.56;;;9.83;100.00
64078;BME280;51039;49.696;10.808;2022-12-26T12:32:05;98369.41;;;9.81;99.81
64078;BME280;51039;49.696;10.808;2022-12-26T12:43:11;98362.31;;;9.95;98.13
64078;BME280;51039;49.696;10.808;2022-12-26T12:45:53;98382.66;;;9.88;98.01
64078;BME280;51039;49.696;10.808;2022-12-26T12:48:35;98370.44;;;9.87;97.26
64078;BME280;51039;49.696;10.808;2022-12-26T12:51:26;98356.78;;;9.83;97.00
64078;BME280;51039;49.696;10.808;2022-12-26T13:05:15;98368.97;;;9.77;96.65
64078;BME280;51039;49.696;10.808;2022-12-26T13:07:42;98368.09;;;9.63;97.80
64078;BME280;51039;49.696;10.808;2022-12-26T13:10:26;98358.97;;;9.66;97.77
64078;BME280;51039;49.696;10.808;2022-12-26T13:12:57;98356.97;;;9.68;97.23
64078;BME280;51039;49.696;10.808;2022-12-26T13:15:33;98349.03;;;9.68;97.57
64078;BME280;51039;49.696;10.808;2022-12-26T13:18:10;98347.38;;;9.67;97.67
64078;BME280;51039;49.696;10.808;2022-12-26T13:20:46;98347.13;;;9.62;97.50
64078;BME280;51039;49.696;10.808;2022-12-26T13:23:21;98357.50;;;9.57;97.83
64078;BME280;51039;49.696;10.808;2022-12-26T13:26:12;98355.88;;;9.56;98.16
64078;BME280;51039;49.696;10.808;2022-12-26T13:28:47;98352.84;;;9.59;97.58
64078;BME280;51039;49.696;10.808;2022-12-26T13:31:18;98361.19;;;9.62;97.70
64078;BME280;51039;49.696;10.808;2022-12-26T13:33:44;98358.31;;;9.57;97.72
64078;BME280;51039;49.696;10.808;2022-12-26T13:36:10;98352.59;;;9.54;97.75
64078;BME280;51039;49.696;10.808;2022-12-26T13:41:32;98355.69;;;9.57;97.42
64078;BME280;51039;49.696;10.808;2022-12-26T13:54:34;98359.47;;;9.41;99.63
64078;BME280;51039;49.696;10.808;2022-12-26T13:57:05;98361.91;;;9.43;100.00
64078;BME280;51039;49.696;10.808;2022-12-26T14:00:04;98365.13;;;9.38;100.00
64078;BME280;51039;49.696;10.808;2022-12-26T14:07:52;98361.84;;;9.30;100.00
64078;BME280;51039;49.696;10.808;2022-12-26T14:16:47;98356.50;;;9.23;100.00
64078;BME280;51039;49.696;10.808;2022-12-26T14:19:42;98347.94;;;9.21;100.00
64078;BME280;51039;49.696;10.808;2022-12-26T14:22:22;98360.97;;;9.22;100.00
64078;BME280;51039;49.696;10.808;2022-12-26T14:27:54;98358.28;;;9.16;100.00
64078;BME280;51039;49.696;10.808;2022-12-26T14:30:37;98355.63;;;9.16;100.00
64078;BME280;51039;49.696;10.808;2022-12-26T14:33:28;98352.81;;;9.17;100.00
64078;BME280;51039;49.696;10.808;2022-12-26T14:38:49;98355.63;;;9.16;100.00
64078;BME280;51039;49.696;10.808;2022-12-26T14:41:25;98361.13;;;9.14;100.00
64078;BME280;51039;49.696;10.808;2022-12-26T14:44:16;98361.13;;;9.14;100.00
64078;BME280;51039;49.696;10.808;2022-12-26T14:47:01;98366.59;;;9.13;100.00
64078;BME280;51039;49.696;10.808;2022-12-26T14:54:49;98365.13;;;9.03;100.00
64078;BME280;51039;49.696;10.808;2022-12-26T15:02:51;98367.91;;;8.95;100.00
64078;BME280;51039;49.696;10.808;2022-12-26T15:05:38;98364.25;;;8.96;100.00
64078;BME280;51039;49.696;10.808;2022-12-26T15:14:47;98358.34;;;8.94;100.00
64078;BME280;51039;49.696;10.808;2022-12-26T15:17:48;98343.88;;;8.90;100.00
64078;BME280;51039;49.696;10.808;2022-12-26T15:24:05;98341.00;;;8.85;100.00
64078;BME280;51039;49.696;10.808;2022-12-26T15:26:54;98357.25;;;8.82;100.00
64078;BME280;51039;49.696;10.808;2022-12-26T15:32:27;98359.69;;;8.83;100.00
64078;BME280;51039;49.696;10.808;2022-12-26T15:40:50;98352.78;;;8.82;100.00
64078;BME280;51039;49.696;10.808;2022-12-26T15:46:34;98373.28;;;8.80;100.00
64078;BME280;51039;49.696;10.808;2022-12-26T15:52:07;98364.34;;;8.81;100.00
64078;BME280;51039;49.696;10.808;2022-12-26T15:57:22;98376.91;;;8.79;100.00
64078;BME280;51039;49.696;10.808;2022-12-26T16:00:07;98379.75;;;8.78;100.00